createdAt,value
2023-02-18T00:01:38.958Z,62.60
2023-02-18T00:06:42.494Z,59.52
2023-02-18T00:11:45.996Z,62.51
2023-02-18T00:16:49.646Z,59.42
2023-02-18T00:21:53.272Z,62.22
2023-02-18T00:26:57.810Z,59.57
2023-02-18T00:32:01.523Z,61.69
2023-02-18T00:37:05.644Z,59.76
2023-02-18T00:42:09.300Z,59.94
2023-02-18T00:47:12.933Z,61.87
2023-02-18T00:52:16.346Z,60.81
2023-02-18T00:57:19.944Z,58.91
2023-02-18T01:02:26.968Z,61.51
2023-02-18T01:07:30.643Z,62.35
2023-02-18T01:12:34.321Z,59.07
2023-02-18T01:17:38.057Z,59.00
2023-02-18T01:22:42.429Z,60.83
2023-02-18T01:27:46.151Z,61.93
2023-02-18T01:54:46.171Z,60.96
2023-02-18T02:00:00.508Z,61.74
2023-02-18T02:05:04.748Z,58.35
2023-02-18T02:10:10.579Z,60.44
2023-02-18T02:16:11.046Z,61.66
2023-02-18T02:21:48.820Z,62.01
2023-02-18T02:27:20.617Z,60.71
2023-02-18T02:32:33.286Z,57.92
2023-02-18T02:37:59.564Z,59.95
2023-02-18T02:43:03.097Z,60.90
2023-02-18T02:49:02.992Z,61.58
2023-02-18T02:54:23.703Z,61.31
2023-02-18T02:59:27.663Z,60.59
2023-02-18T03:04:52.597Z,60.78
2023-02-18T03:10:18.899Z,61.37
2023-02-18T03:16:18.804Z,61.18
2023-02-18T03:21:50.272Z,60.91
2023-02-18T03:27:29.826Z,60.66
2023-02-18T03:32:35.981Z,60.61
2023-02-18T03:37:50.193Z,60.34
2023-02-18T03:42:53.999Z,60.03
2023-02-18T03:47:57.839Z,60.18
2023-02-18T03:53:01.776Z,59.58
2023-02-18T03:58:05.403Z,59.43
2023-02-18T04:03:09.235Z,59.04
2023-02-18T04:08:12.857Z,59.36
2023-02-18T04:13:18.278Z,59.74
2023-02-18T04:18:22.579Z,59.66
2023-02-18T04:23:26.823Z,59.62
2023-02-18T04:28:30.653Z,59.59
2023-02-18T04:33:34.602Z,59.67
2023-02-18T04:39:03.105Z,60.01
2023-02-18T04:44:06.931Z,60.63
2023-02-18T04:49:10.547Z,60.82
2023-02-18T04:54:14.286Z,61.07
2023-02-18T04:59:20.272Z,61.11
2023-02-18T05:04:49.431Z,61.31
2023-02-18T05:09:55.579Z,61.46
2023-02-18T05:14:59.730Z,61.58
2023-02-18T05:20:04.769Z,62.30
2023-02-18T05:26:30.602Z,59.06
2023-02-18T05:32:11.487Z,59.50
2023-02-18T05:37:15.472Z,61.71
2023-02-18T05:42:19.041Z,62.39
2023-02-18T05:48:14.224Z,59.37
2023-02-18T06:03:38.038Z,61.94
2023-02-18T06:08:41.691Z,62.38
2023-02-18T06:13:51.295Z,59.05
2023-02-18T06:40:48.452Z,57.80
2023-02-18T06:46:17.673Z,60.08
2023-02-18T06:51:21.513Z,61.39
2023-02-18T06:56:25.613Z,61.85
2023-02-18T07:01:29.244Z,62.31
2023-02-18T07:06:58.067Z,60.30
2023-02-18T07:12:02.191Z,58.31
2023-02-18T07:17:05.813Z,60.32
2023-02-18T07:22:09.670Z,61.11
2023-02-18T07:27:13.542Z,61.65
2023-02-18T07:33:33.946Z,61.88
2023-02-18T07:38:37.500Z,61.33
2023-02-18T07:50:46.664Z,60.63
2023-02-18T07:55:50.289Z,60.51
2023-02-18T08:00:56.577Z,60.90
2023-02-18T08:06:51.642Z,60.76
2023-02-18T08:11:55.577Z,60.47
2023-02-18T08:16:59.519Z,59.82
2023-02-18T08:22:03.617Z,60.15
2023-02-18T08:35:17.886Z,59.48
2023-02-18T08:40:21.890Z,59.56
2023-02-18T08:45:26.152Z,59.40
2023-02-18T08:58:58.844Z,58.63
2023-02-18T09:04:02.445Z,57.37
2023-02-18T09:09:56.474Z,56.41
2023-02-18T09:15:27.065Z,55.96
2023-02-18T09:20:30.974Z,56.77
2023-02-18T09:25:34.727Z,56.07
2023-02-18T09:30:40.641Z,55.78
2023-02-18T09:36:02.064Z,55.64
2023-02-18T09:41:19.783Z,54.70
2023-02-18T09:46:33.087Z,54.16
2023-02-18T09:51:37.293Z,53.93
2023-02-18T09:56:42.547Z,54.07
2023-02-18T10:01:52.555Z,54.21
2023-02-18T10:06:58.852Z,54.46
2023-02-18T10:12:31.213Z,54.68
2023-02-18T10:25:07.422Z,55.43
2023-02-18T10:41:04.304Z,55.09
2023-02-18T10:46:27.176Z,55.69
2023-02-18T10:51:36.386Z,55.86
2023-02-18T10:56:52.425Z,55.43
2023-02-18T11:02:01.358Z,55.69
2023-02-18T11:07:14.769Z,55.59
2023-02-18T11:42:30.218Z,55.07
2023-02-18T11:47:38.084Z,55.85
2023-02-18T11:52:50.373Z,56.22
2023-02-18T11:58:06.251Z,54.63
2023-02-18T12:03:38.689Z,52.57
2023-02-18T12:25:26.745Z,54.46
2023-02-18T12:30:54.583Z,55.28
2023-02-18T12:36:27.935Z,55.45
2023-02-18T12:42:07.340Z,55.46
2023-02-18T12:47:40.851Z,55.24
2023-02-18T12:53:00.249Z,55.80
2023-02-18T12:58:33.082Z,55.80
2023-02-18T13:03:59.042Z,55.95
2023-02-18T13:10:21.571Z,56.46
2023-02-18T13:16:23.831Z,56.85
2023-02-18T13:21:30.735Z,56.65
2023-02-18T13:26:38.430Z,56.82
2023-02-18T13:32:41.185Z,56.68
2023-02-18T13:38:00.650Z,56.95
2023-02-18T13:50:37.781Z,56.49
2023-02-18T14:18:14.145Z,54.85
2023-02-18T14:23:20.718Z,55.34
2023-02-18T14:36:15.122Z,55.12
2023-02-18T14:42:39.799Z,55.52
2023-02-18T14:48:14.146Z,55.97
2023-02-18T14:53:27.922Z,56.20
2023-02-18T14:58:39.464Z,56.49
2023-02-18T15:03:46.810Z,56.82
2023-02-18T15:08:55.627Z,57.30
2023-02-18T15:14:40.280Z,57.51
2023-02-18T15:19:56.257Z,57.71
2023-02-18T15:26:29.279Z,57.82
2023-02-18T15:31:39.496Z,57.81
2023-02-18T15:36:52.141Z,57.99
2023-02-18T15:50:16.949Z,58.00
2023-02-18T16:03:13.563Z,58.51
2023-02-18T16:08:28.354Z,58.81
2023-02-18T16:18:35.698Z,59.12
2023-02-18T16:23:56.817Z,59.52
2023-02-18T16:43:17.755Z,60.68
2023-02-18T16:49:13.800Z,61.00
2023-02-18T16:54:17.971Z,61.13
2023-02-18T16:59:22.411Z,61.49
2023-02-18T17:04:26.964Z,61.82
2023-02-18T17:09:32.244Z,61.85
2023-02-18T17:14:36.279Z,57.52
2023-02-18T17:19:46.348Z,59.39
2023-02-18T17:24:50.416Z,61.70
2023-02-18T17:29:54.125Z,60.15
2023-02-18T17:34:59.678Z,57.88
2023-02-18T17:40:13.532Z,61.09
2023-02-18T17:45:35.071Z,61.78
2023-02-18T17:50:38.865Z,58.06
2023-02-18T17:55:45.939Z,60.69
2023-02-18T18:00:57.783Z,62.06
2023-02-18T18:06:03.121Z,57.45
2023-02-18T18:11:11.294Z,60.38
2023-02-18T18:16:18.688Z,61.84
2023-02-18T18:21:35.897Z,58.11
2023-02-18T18:26:39.817Z,61.18
2023-02-18T18:31:45.901Z,61.13
2023-02-18T18:36:51.371Z,57.75
2023-02-18T18:41:56.368Z,61.27
2023-02-18T18:47:00.226Z,61.05
2023-02-18T18:52:17.501Z,58.18
2023-02-18T18:57:30.970Z,61.71
2023-02-18T19:02:44.504Z,59.92
2023-02-18T19:07:53.857Z,59.11
2023-02-18T19:13:39.680Z,62.08
2023-02-18T19:18:44.968Z,57.52
2023-02-18T19:30:58.899Z,59.84
2023-02-18T19:36:11.075Z,59.46
2023-02-18T19:41:19.789Z,62.26
2023-02-18T19:46:24.716Z,57.81
2023-02-18T19:51:28.781Z,61.07
2023-02-18T19:56:32.616Z,61.40
2023-02-18T20:01:36.632Z,56.86
2023-02-18T20:07:06.122Z,60.57
2023-02-18T20:12:13.511Z,62.25
2023-02-18T20:17:17.714Z,58.00
2023-02-18T20:22:21.507Z,61.63
2023-02-18T20:27:25.396Z,62.49
2023-02-18T20:32:29.276Z,55.99
2023-02-18T20:37:34.248Z,58.24
2023-02-18T20:42:39.399Z,62.67
2023-02-18T20:47:43.494Z,60.77
2023-02-18T20:52:47.264Z,58.97
2023-02-18T20:57:51.729Z,63.14
2023-02-18T21:02:55.548Z,60.53
2023-02-18T21:07:59.341Z,60.17
2023-02-18T21:13:03.119Z,62.25
2023-02-18T21:18:06.852Z,58.21
2023-02-18T21:23:12.348Z,62.06
2023-02-18T21:28:42.125Z,61.07
2023-02-18T21:34:13.464Z,58.34
2023-02-18T21:39:17.186Z,62.47
2023-02-18T21:44:24.996Z,58.67
2023-02-18T21:49:34.140Z,61.68
2023-02-18T22:00:36.298Z,60.45
2023-02-18T22:05:42.700Z,62.56
2023-02-18T22:10:46.819Z,58.23
2023-02-18T22:15:58.018Z,58.20
2023-02-18T22:21:10.005Z,62.78
2023-02-18T22:26:14.472Z,61.06
2023-02-18T22:31:18.634Z,56.43
2023-02-18T22:36:25.058Z,62.16
2023-02-18T22:41:31.768Z,60.64
2023-02-18T22:47:44.065Z,57.64
2023-02-18T22:53:03.132Z,62.82
2023-02-18T22:58:06.906Z,58.38
2023-02-18T23:03:10.683Z,60.88
2023-02-18T23:08:14.507Z,63.01
2023-02-18T23:13:18.280Z,57.72
2023-02-18T23:18:22.104Z,62.11
2023-02-18T23:23:25.830Z,60.20
2023-02-18T23:28:29.556Z,58.54
2023-02-18T23:33:33.383Z,63.18
2023-02-18T23:38:37.338Z,58.46
2023-02-18T23:50:47.806Z,60.16
2023-02-18T23:56:06.933Z,60.07
